Time;durP1;ratioP1;P1;durP2;ratioP2;P2;SDS_P1;SDS_P2;PMS_P1;PMS_P2;Temp;Humidity;BMP_temperature;BMP_pressure;BME280_temperature;BME280_humidity;BME280_pressure;Samples;Min_cycle;Max_cycle;Signal;HPM_P1;HPM_P2
2021/11/19 00:01:55;;;;;;;33.30;19.07;;;11.20;99.70;;;;;;4900852;29;20041;-76
2021/11/19 00:04:22;;;;;;;38.00;19.70;;;11.10;99.70;;;;;;4900809;29;20036;-76
2021/11/19 00:06:48;;;;;;;34.13;20.47;;;11.10;99.70;;;;;;4900673;29;20041;-75
2021/11/19 00:09:14;;;;;;;37.77;20.73;;;11.10;99.80;;;;;;4899543;29;20056;-76
2021/11/19 00:11:43;;;;;;;37.30;20.37;;;11.10;99.80;;;;;;4883856;29;20036;-75
2021/11/19 00:14:09;;;;;;;34.03;20.03;;;11.10;99.80;;;;;;4899486;29;20121;-76
2021/11/19 00:16:38;;;;;;;35.20;21.27;;;11.10;99.90;;;;;;4884193;29;20044;-77
2021/11/19 00:19:04;;;;;;;35.37;19.87;;;11.10;99.90;;;;;;4899419;29;20120;-76
2021/11/19 00:21:32;;;;;;;36.03;20.73;;;11.10;99.90;;;;;;4899795;29;20047;-77
2021/11/19 00:23:59;;;;;;;37.13;19.83;;;11.10;99.90;;;;;;4899337;29;20040;-79
2021/11/19 00:26:25;;;;;;;33.53;19.83;;;11.10;99.90;;;;;;4900686;29;20040;-76
2021/11/19 00:28:51;;;;;;;33.63;19.40;;;11.10;99.80;;;;;;4900595;29;20036;-76
2021/11/19 00:31:18;;;;;;;37.90;20.30;;;11.10;99.90;;;;;;4900328;29;20123;-75
2021/11/19 00:33:44;;;;;;;36.50;21.73;;;11.10;99.90;;;;;;4899492;29;20035;-76
2021/11/19 00:36:14;;;;;;;36.80;21.33;;;11.10;99.90;;;;;;4899813;29;20048;-74
2021/11/19 00:38:41;;;;;;;36.03;21.43;;;11.10;99.90;;;;;;4898775;29;20484;-76
2021/11/19 00:41:09;;;;;;;36.67;21.33;;;11.10;99.90;;;;;;4882959;29;20032;-76
2021/11/19 00:43:36;;;;;;;36.10;21.77;;;11.10;99.90;;;;;;4899827;29;20036;-76
2021/11/19 00:46:04;;;;;;;33.00;20.83;;;11.10;99.90;;;;;;4898600;29;20068;-78
2021/11/19 00:48:32;;;;;;;38.83;21.57;;;11.10;99.90;;;;;;4898780;29;20032;-76
2021/11/19 00:51:19;;;;;;;35.03;21.17;;;11.00;99.90;;;;;;4899442;29;20485;-76
2021/11/19 00:53:48;;;;;;;38.57;21.87;;;11.00;99.90;;;;;;4898932;29;20378;-76
2021/11/19 00:56:18;;;;;;;42.70;22.80;;;11.00;99.90;;;;;;4899683;29;20124;-76
2021/11/19 00:58:45;;;;;;;39.93;23.03;;;11.00;99.90;;;;;;4883610;29;20466;-76
2021/11/19 01:01:19;;;;;;;42.03;22.73;;;11.00;99.90;;;;;;4898899;29;20051;-76
2021/11/19 01:03:45;;;;;;;34.50;21.00;;;11.00;99.90;;;;;;4897967;29;20569;-76
2021/11/19 01:06:12;;;;;;;37.67;22.50;;;11.00;99.90;;;;;;4897668;29;20508;-77
2021/11/19 01:08:38;;;;;;;43.00;22.13;;;11.00;99.90;;;;;;4898031;29;20464;-77
2021/11/19 01:11:07;;;;;;;35.07;22.10;;;11.00;99.90;;;;;;4897924;29;20137;-77
2021/11/19 01:13:35;;;;;;;40.20;22.37;;;11.00;99.90;;;;;;4900057;29;20069;-76
2021/11/19 01:16:06;;;;;;;38.10;22.67;;;11.00;99.90;;;;;;4897973;29;20047;-78
2021/11/19 01:18:46;;;;;;;35.47;22.30;;;11.00;99.90;;;;;;4898262;29;20087;-76
2021/11/19 01:21:41;;;;;;;36.13;21.43;;;11.00;99.90;;;;;;4899271;29;20032;-76
2021/11/19 01:24:07;;;;;;;38.07;23.20;;;11.00;99.90;;;;;;4895339;29;20033;-76
2021/11/19 01:26:36;;;;;;;37.10;22.20;;;11.00;99.90;;;;;;4898064;29;20032;-76
2021/11/19 01:29:06;;;;;;;43.57;22.07;;;11.00;99.90;;;;;;4898077;29;20032;-77
2021/11/19 01:31:41;;;;;;;41.50;22.40;;;11.00;99.90;;;;;;4899740;29;20438;-75
2021/11/19 01:34:08;;;;;;;43.47;23.80;;;11.00;99.90;;;;;;4897996;29;20051;-76
2021/11/19 01:36:33;;;;;;;34.63;21.93;;;11.00;99.90;;;;;;4897522;29;20127;-76
2021/11/19 01:38:59;;;;;;;38.67;22.17;;;11.00;99.90;;;;;;4898406;29;20132;-76
2021/11/19 01:42:00;;;;;;;38.80;22.63;;;11.00;99.90;;;;;;4882441;29;20463;-76
2021/11/19 01:44:36;;;;;;;43.90;23.40;;;11.00;99.90;;;;;;4895305;29;20036;-75
2021/11/19 01:47:06;;;;;;;36.57;22.47;;;11.00;99.90;;;;;;4897796;29;20067;-76
2021/11/19 01:49:33;;;;;;;38.30;21.53;;;11.00;99.90;;;;;;4897496;29;20394;-76
2021/11/19 01:52:08;;;;;;;34.30;21.83;;;11.00;99.90;;;;;;4897902;29;20037;-75
2021/11/19 01:54:59;;;;;;;39.20;21.53;;;11.10;99.90;;;;;;4897975;29;20047;-75
2021/11/19 01:57:35;;;;;;;36.10;22.07;;;11.10;99.90;;;;;;4898126;29;20060;-76
2021/11/19 02:00:14;;;;;;;39.33;24.13;;;11.10;99.90;;;;;;4898415;29;20037;-75
2021/11/19 02:02:42;;;;;;;40.00;23.20;;;11.10;99.90;;;;;;4898862;29;20131;-76
2021/11/19 02:05:14;;;;;;;42.97;23.93;;;11.10;99.90;;;;;;4899021;29;20043;-77
2021/11/19 02:07:46;;;;;;;42.20;24.93;;;11.00;99.90;;;;;;4900622;29;20068;-75
2021/11/19 02:10:50;;;;;;;38.95;22.95;;;11.00;99.90;;;;;;4900768;29;20412;-76
2021/11/19 02:13:44;;;;;;;36.08;22.58;;;11.00;99.90;;;;;;4900507;29;20132;-74
2021/11/19 02:16:23;;;;;;;38.37;22.40;;;11.10;99.90;;;;;;4901164;29;20056;-74
2021/11/19 02:18:55;;;;;;;38.70;24.90;;;11.10;99.90;;;;;;4901489;29;20044;-76
2021/11/19 02:21:26;;;;;;;36.72;24.42;;;11.10;99.90;;;;;;4899165;29;20044;-75
2021/11/19 02:24:21;;;;;;;39.07;25.30;;;11.10;99.90;;;;;;4897618;29;20044;-76
2021/11/19 02:26:52;;;;;;;44.20;25.93;;;11.10;99.90;;;;;;4896071;29;20069;-76
2021/11/19 02:29:20;;;;;;;37.63;24.73;;;11.10;99.90;;;;;;4898746;29;20041;-77
2021/11/19 02:31:59;;;;;;;39.23;25.47;;;11.10;99.90;;;;;;4898644;29;20044;-76
2021/11/19 02:34:27;;;;;;;44.17;25.77;;;11.10;99.90;;;;;;4898594;29;20048;-76
2021/11/19 02:36:52;;;;;;;42.70;26.80;;;11.10;99.90;;;;;;4899253;29;20044;-76
2021/11/19 02:39:45;;;;;;;44.10;26.50;;;11.10;99.90;;;;;;4899081;29;20100;-77
2021/11/19 02:42:18;;;;;;;37.22;25.25;;;11.10;99.90;;;;;;4901632;29;20056;-82
2021/11/19 02:44:45;;;;;;;;;;;11.10;99.90;;;;;;4900598;29;20059;-76
2021/11/19 02:47:15;;;;;;;40.37;26.67;;;11.10;99.90;;;;;;4898694;29;20010;-77
2021/11/19 02:49:42;;;;;;;44.47;26.77;;;11.00;99.90;;;;;;4898067;29;20553;-75
2021/11/19 02:52:15;;;;;;;40.00;26.43;;;11.00;99.90;;;;;;4897519;29;20041;-75
2021/11/19 02:54:41;;;;;;;;;;;11.00;99.90;;;;;;4898969;29;20145;-77
2021/11/19 02:57:07;;;;;;;45.33;27.90;;;11.00;99.90;;;;;;4897812;29;19951;-76
2021/11/19 02:59:33;;;;;;;44.00;28.73;;;11.10;99.90;;;;;;4898109;29;20036;-76
2021/11/19 03:02:03;;;;;;;40.80;27.33;;;11.10;99.90;;;;;;4882441;29;20093;-75
2021/11/19 03:04:33;;;;;;;48.60;28.10;;;11.10;99.90;;;;;;4898153;29;20037;-77
2021/11/19 03:07:00;;;;;;;50.23;28.50;;;11.10;99.90;;;;;;4897912;29;20412;-77
2021/11/19 03:09:35;;;;;;;44.43;28.57;;;11.10;99.90;;;;;;4897829;29;20032;-76
2021/11/19 03:12:27;;;;;;;41.17;27.27;;;11.10;99.90;;;;;;5104266;27;1272526;-75
2021/11/19 03:14:55;;;;;;;45.93;29.50;;;11.10;99.90;;;;;;5129372;27;20035;-76
2021/11/19 03:17:22;;;;;;;43.90;27.90;;;11.10;99.90;;;;;;5129921;27;20440;-77
2021/11/19 03:19:49;;;;;;;42.00;28.07;;;11.10;99.90;;;;;;5130126;28;20534;-75
2021/11/19 03:22:18;;;;;;;47.50;29.07;;;11.10;99.90;;;;;;5111726;28;20041;-79
2021/11/19 03:24:45;;;;;;;46.27;29.10;;;11.10;99.90;;;;;;5128927;27;20364;-74
2021/11/19 03:27:12;;;;;;;49.40;30.33;;;11.10;99.90;;;;;;5130710;27;20083;-75
2021/11/19 03:29:39;;;;;;;43.60;28.17;;;11.10;99.90;;;;;;5129217;28;20421;-78
2021/11/19 03:32:08;;;;;;;48.77;30.43;;;11.10;99.90;;;;;;5128660;27;20141;-75
2021/11/19 03:34:34;;;;;;;41.77;27.97;;;11.10;99.90;;;;;;5128634;28;20035;-75
2021/11/19 03:36:59;;;;;;;46.97;29.80;;;11.10;99.90;;;;;;5129321;28;20015;-76
2021/11/19 03:39:28;;;;;;;44.43;28.07;;;11.10;99.90;;;;;;5128104;28;20103;-76
2021/11/19 03:41:56;;;;;;;45.53;29.57;;;11.10;99.90;;;;;;5126845;27;20028;-77
2021/11/19 03:44:30;;;;;;;47.53;30.27;;;11.10;99.90;;;;;;5126756;27;20137;-76
2021/11/19 03:47:03;;;;;;;52.03;30.70;;;11.10;99.90;;;;;;5129030;28;20047;-75
2021/11/19 03:49:29;;;;;;;;;;;11.10;99.90;;;;;;5127806;28;20031;-76
2021/11/19 03:52:06;;;;;;;44.57;28.63;;;11.00;99.90;;;;;;5129792;27;19907;-76
2021/11/19 03:54:33;;;;;;;44.07;29.37;;;11.00;99.90;;;;;;5123449;27;20032;-76
2021/11/19 03:57:00;;;;;;;51.10;31.00;;;11.10;99.90;;;;;;5113156;27;20115;-76
2021/11/19 03:59:26;;;;;;;50.47;30.17;;;11.00;99.90;;;;;;5127190;27;20060;-76
2021/11/19 04:01:56;;;;;;;49.50;29.43;;;11.00;99.90;;;;;;5127678;27;20080;-76
2021/11/19 04:04:26;;;;;;;47.40;28.33;;;11.00;99.90;;;;;;5127659;27;20102;-79
2021/11/19 04:06:52;;;;;;;48.63;30.80;;;11.00;99.90;;;;;;5112629;28;20023;-76
2021/11/19 04:09:19;;;;;;;48.93;30.93;;;11.00;99.90;;;;;;5125985;27;20503;-76
2021/11/19 04:11:45;;;;;;;47.53;29.23;;;11.00;99.90;;;;;;5110631;28;20063;-76
2021/11/19 04:14:11;;;;;;;44.53;29.67;;;11.00;99.90;;;;;;5127434;27;20035;-76
2021/11/19 04:16:44;;;;;;;46.97;31.57;;;11.00;99.90;;;;;;5104141;28;20032;-76
2021/11/19 04:19:14;;;;;;;46.10;30.37;;;11.00;99.90;;;;;;5128036;27;20035;-76
2021/11/19 04:21:41;;;;;;;50.07;31.23;;;11.00;99.90;;;;;;5126213;28;20042;-76
2021/11/19 04:24:08;;;;;;;48.20;29.40;;;11.00;99.90;;;;;;5114542;28;20069;-75
2021/11/19 04:26:35;;;;;;;49.00;30.80;;;11.10;99.90;;;;;;5112105;28;20455;-75
2021/11/19 04:29:01;;;;;;;50.47;29.93;;;11.10;99.90;;;;;;5112045;28;20107;-76
2021/11/19 04:31:28;;;;;;;52.33;30.60;;;11.10;99.90;;;;;;5112114;28;20439;-76
2021/11/19 04:33:54;;;;;;;43.83;29.77;;;11.10;99.90;;;;;;5113931;28;20035;-76
2021/11/19 04:36:20;;;;;;;54.90;31.97;;;11.10;99.90;;;;;;5096778;28;20486;-76
2021/11/19 04:38:47;;;;;;;45.50;30.37;;;11.10;99.90;;;;;;5113957;28;20121;-76
2021/11/19 04:41:15;;;;;;;47.33;29.47;;;11.10;99.90;;;;;;5096411;28;20100;-76
2021/11/19 04:43:41;;;;;;;48.57;30.03;;;11.10;99.90;;;;;;5094679;28;20139;-77
2021/11/19 04:46:08;;;;;;;44.83;28.50;;;11.20;99.90;;;;;;5093874;28;20035;-76
2021/11/19 04:48:35;;;;;;;50.77;30.33;;;11.20;99.90;;;;;;5113410;27;20023;-77
2021/11/19 04:51:05;;;;;;;45.40;29.27;;;11.20;99.90;;;;;;5114547;28;20020;-77
2021/11/19 04:53:31;;;;;;;53.43;32.03;;;11.10;99.90;;;;;;5114917;28;20023;-76
2021/11/19 04:55:59;;;;;;;51.33;32.70;;;11.20;99.90;;;;;;5116126;28;20024;-77
2021/11/19 04:58:25;;;;;;;46.43;30.03;;;11.10;99.90;;;;;;5096093;28;20040;-76
2021/11/19 05:00:55;;;;;;;49.27;31.03;;;11.10;99.90;;;;;;5095033;28;20034;-76
2021/11/19 05:03:21;;;;;;;49.53;30.27;;;11.20;99.90;;;;;;5112593;27;20050;-76
2021/11/19 05:05:49;;;;;;;47.30;31.13;;;11.20;99.90;;;;;;5112093;28;20038;-78
2021/11/19 05:08:15;;;;;;;48.50;30.30;;;11.20;99.90;;;;;;5098330;28;20499;-75
2021/11/19 05:10:42;;;;;;;47.77;30.33;;;11.20;99.90;;;;;;5094208;28;20060;-75
2021/11/19 05:13:09;;;;;;;46.37;31.47;;;11.20;99.90;;;;;;5112711;28;20364;-75
2021/11/19 05:15:39;;;;;;;49.23;29.90;;;11.20;99.90;;;;;;5096212;28;20039;-75
2021/11/19 05:18:05;;;;;;;43.40;28.67;;;11.20;99.90;;;;;;5109198;28;20019;-75
2021/11/19 05:20:32;;;;;;;43.83;27.73;;;11.20;99.90;;;;;;5109664;27;20387;-79
2021/11/19 05:22:58;;;;;;;41.60;29.50;;;11.30;99.90;;;;;;5114963;28;20024;-75
2021/11/19 05:25:29;;;;;;;43.30;29.27;;;11.30;99.90;;;;;;5113383;28;20027;-76
2021/11/19 05:27:55;;;;;;;41.40;30.00;;;11.30;99.90;;;;;;5110725;27;20077;-75
2021/11/19 05:30:21;;;;;;;49.07;31.27;;;11.20;99.90;;;;;;5108436;27;20089;-75
2021/11/19 05:32:48;;;;;;;45.63;29.50;;;11.20;99.90;;;;;;5111891;28;20051;-76
2021/11/19 05:35:15;;;;;;;43.83;28.30;;;11.30;99.90;;;;;;5111266;28;20463;-77
2021/11/19 05:37:42;;;;;;;45.90;30.23;;;11.30;99.90;;;;;;5111449;28;20019;-77
2021/11/19 05:40:10;;;;;;;43.97;29.53;;;11.30;99.90;;;;;;5111087;27;20023;-76
2021/11/19 05:42:36;;;;;;;44.03;29.80;;;11.30;99.90;;;;;;5110963;28;20110;-76
2021/11/19 05:45:04;;;;;;;39.67;27.43;;;11.30;99.90;;;;;;5095844;28;20471;-75
2021/11/19 05:47:30;;;;;;;44.90;29.77;;;11.40;99.90;;;;;;5112328;28;20027;-75
2021/11/19 05:50:00;;;;;;;45.57;29.97;;;11.30;99.90;;;;;;5095055;28;20031;-76
2021/11/19 05:52:26;;;;;;;40.93;29.40;;;11.30;99.90;;;;;;5094833;28;20044;-76
2021/11/19 05:54:52;;;;;;;43.10;29.60;;;11.30;99.90;;;;;;5112532;28;20027;-75
2021/11/19 05:57:18;;;;;;;43.17;29.83;;;11.30;99.90;;;;;;5113802;28;20360;-76
2021/11/19 05:59:44;;;;;;;41.70;28.90;;;11.30;99.90;;;;;;5114636;28;20042;-76
2021/11/19 06:02:16;;;;;;;45.90;30.77;;;11.30;99.90;;;;;;5094958;28;20065;-75
2021/11/19 06:04:41;;;;;;;41.87;29.37;;;11.30;99.90;;;;;;5112548;28;20035;-77
2021/11/19 06:07:07;;;;;;;45.87;30.37;;;11.30;99.90;;;;;;5096142;28;20028;-76
2021/11/19 06:09:36;;;;;;;40.47;28.73;;;11.30;99.90;;;;;;5076102;28;20032;-77
2021/11/19 06:12:07;;;;;;;44.27;29.30;;;11.30;99.90;;;;;;5106623;27;20040;-77
2021/11/19 06:14:49;;;;;;;41.53;28.33;;;11.30;99.90;;;;;;5110885;28;20104;-77
2021/11/19 06:17:46;;;;;;;41.97;29.60;;;11.30;99.90;;;;;;5112246;28;20039;-77
2021/11/19 06:20:17;;;;;;;38.63;28.23;;;11.30;99.90;;;;;;5094992;28;20035;-77
2021/11/19 06:22:49;;;;;;;41.23;29.63;;;11.30;99.90;;;;;;5108479;28;20035;-77
2021/11/19 06:25:21;;;;;;;43.50;29.88;;;11.30;99.90;;;;;;5111010;28;20030;-77
2021/11/19 06:27:50;;;;;;;41.73;28.87;;;11.30;99.90;;;;;;5110794;28;20023;-77
2021/11/19 06:30:16;;;;;;;42.60;30.00;;;11.30;99.90;;;;;;5110621;27;20059;-77
2021/11/19 06:32:42;;;;;;;42.47;30.10;;;11.30;99.90;;;;;;5109511;28;20503;-79
2021/11/19 06:35:10;;;;;;;46.80;32.20;;;11.30;99.90;;;;;;5111645;28;20023;-77
2021/11/19 06:37:36;;;;;;;42.07;28.00;;;11.20;99.90;;;;;;5112845;28;20021;-78
2021/11/19 06:40:09;;;;;;;45.77;31.60;;;11.30;99.90;;;;;;5109353;28;20536;-78
2021/11/19 06:42:35;;;;;;;50.78;32.28;;;11.30;99.90;;;;;;5109570;28;20380;-77
2021/11/19 06:45:01;;;;;;;41.97;30.17;;;11.30;99.90;;;;;;5092694;28;20016;-78
2021/11/19 06:47:26;;;;;;;40.90;28.13;;;11.30;99.90;;;;;;5112552;28;20045;-77
2021/11/19 06:49:52;;;;;;;40.10;28.10;;;11.30;99.90;;;;;;5108970;28;20028;-77
2021/11/19 06:52:18;;;;;;;42.90;29.30;;;11.40;99.90;;;;;;5094437;28;20035;-76
2021/11/19 06:54:44;;;;;;;43.20;31.33;;;11.30;99.90;;;;;;5108589;28;20032;-77
2021/11/19 06:57:10;;;;;;;46.83;31.53;;;11.30;99.90;;;;;;5109615;28;20035;-77
2021/11/19 06:59:37;;;;;;;40.10;28.70;;;11.30;99.90;;;;;;5110205;28;20023;-77
2021/11/19 07:02:04;;;;;;;44.20;31.87;;;11.30;99.90;;;;;;5109291;28;20118;-77
2021/11/19 07:04:29;;;;;;;44.07;31.27;;;11.30;99.90;;;;;;5110070;28;20032;-78
2021/11/19 07:06:56;;;;;;;47.30;32.93;;;11.30;99.90;;;;;;5108037;28;20039;-77
2021/11/19 07:09:22;;;;;;;40.40;28.87;;;11.40;99.90;;;;;;5083174;28;20036;-77
2021/11/19 07:11:48;;;;;;;42.47;30.73;;;11.30;99.90;;;;;;5091552;28;20052;-78
2021/11/19 07:14:15;;;;;;;40.80;29.63;;;11.40;99.90;;;;;;5091580;28;20032;-76
2021/11/19 07:16:41;;;;;;;46.93;32.37;;;11.40;99.90;;;;;;5106889;28;20027;-75
2021/11/19 07:19:08;;;;;;;48.17;32.40;;;11.40;99.90;;;;;;5101335;28;20027;-77
2021/11/19 07:21:35;;;;;;;45.00;31.93;;;11.40;99.90;;;;;;5104514;28;20024;-76
2021/11/19 07:24:02;;;;;;;46.87;31.87;;;11.40;99.90;;;;;;5062536;28;20080;-77
2021/11/19 07:26:29;;;;;;;41.87;30.13;;;11.40;99.90;;;;;;5100999;28;20472;-77
2021/11/19 07:28:56;;;;;;;49.77;33.00;;;11.40;99.90;;;;;;5105464;28;20024;-77
2021/11/19 07:31:22;;;;;;;44.97;32.53;;;11.40;99.90;;;;;;5102304;28;20148;-78
2021/11/19 07:33:48;;;;;;;46.73;32.77;;;11.40;99.90;;;;;;5109974;28;20475;-79
2021/11/19 07:36:16;;;;;;;48.70;32.67;;;11.40;99.90;;;;;;5091744;28;20590;-78
2021/11/19 07:38:43;;;;;;;46.70;33.37;;;11.40;99.90;;;;;;5109096;28;20101;-78
2021/11/19 07:41:10;;;;;;;44.57;31.10;;;11.40;99.90;;;;;;5089587;28;20044;-78
2021/11/19 07:43:40;;;;;;;48.90;34.70;;;11.40;99.90;;;;;;5082309;28;20086;-78
2021/11/19 07:46:08;;;;;;;46.83;33.37;;;11.40;99.90;;;;;;5109834;28;20069;-77
2021/11/19 07:48:35;;;;;;;46.10;31.37;;;11.40;99.90;;;;;;5108431;28;20085;-77
2021/11/19 07:51:06;;;;;;;42.47;30.77;;;11.50;99.90;;;;;;5110121;28;20034;-77
2021/11/19 07:53:32;;;;;;;46.47;33.17;;;11.50;99.90;;;;;;5111569;28;20034;-77
2021/11/19 07:55:59;;;;;;;45.97;32.00;;;11.50;99.90;;;;;;5081044;28;20383;-77
2021/11/19 07:58:26;;;;;;;46.80;31.87;;;11.50;99.90;;;;;;5104203;28;20031;-77
2021/11/19 08:00:52;;;;;;;42.87;31.37;;;11.50;99.90;;;;;;5096906;28;20077;-78
2021/11/19 08:03:18;;;;;;;43.30;31.83;;;11.50;99.90;;;;;;5081499;28;20028;-77
2021/11/19 08:05:48;;;;;;;45.77;32.10;;;11.50;99.90;;;;;;5094400;28;20031;-78
2021/11/19 08:08:14;;;;;;;42.83;31.73;;;11.50;99.90;;;;;;5106381;28;20020;-77
2021/11/19 08:10:40;;;;;;;45.87;32.77;;;11.60;99.90;;;;;;5107645;28;20016;-76
2021/11/19 08:13:06;;;;;;;47.97;33.47;;;11.60;99.90;;;;;;5095640;28;20106;-76
2021/11/19 08:15:33;;;;;;;44.10;33.00;;;11.60;99.90;;;;;;5089097;28;20118;-77
2021/11/19 08:18:01;;;;;;;47.57;33.87;;;11.60;99.90;;;;;;5084707;28;20119;-77
2021/11/19 08:20:36;;;;;;;45.30;33.00;;;11.60;99.90;;;;;;5104886;27;20026;-78
2021/11/19 08:23:06;;;;;;;48.30;33.93;;;11.60;99.90;;;;;;5107799;27;20020;-81
2021/11/19 08:25:32;;;;;;;46.83;34.00;;;11.60;99.90;;;;;;5122007;27;20045;-78
2021/11/19 08:27:58;;;;;;;44.90;33.40;;;11.60;99.90;;;;;;5100031;28;20463;-78
2021/11/19 08:30:32;;;;;;;52.50;35.93;;;11.60;99.90;;;;;;5076591;28;20547;-78
2021/11/19 08:33:00;;;;;;;49.63;35.30;;;11.70;99.90;;;;;;5099387;27;20020;-78
2021/11/19 08:35:27;;;;;;;48.33;34.63;;;11.70;99.90;;;;;;5110623;27;20028;-78
2021/11/19 08:37:55;;;;;;;49.93;35.43;;;11.70;99.90;;;;;;5111342;28;20023;-79
2021/11/19 08:40:24;;;;;;;48.33;35.80;;;11.70;99.90;;;;;;5102662;28;20036;-78
2021/11/19 08:42:50;;;;;;;52.37;35.13;;;11.80;99.90;;;;;;5095226;28;20028;-79
2021/11/19 08:45:20;;;;;;;49.47;35.33;;;11.80;99.90;;;;;;5091939;28;20151;-76
2021/11/19 08:47:48;;;;;;;51.00;36.67;;;11.80;99.90;;;;;;5106182;28;20050;-78
2021/11/19 08:50:16;;;;;;;49.00;36.40;;;11.80;99.90;;;;;;5109340;28;20024;-76
2021/11/19 08:52:42;;;;;;;53.97;37.27;;;11.80;99.90;;;;;;5109842;28;20025;-77
2021/11/19 08:55:11;;;;;;;55.00;38.37;;;11.80;99.90;;;;;;5092703;28;20030;-77
2021/11/19 08:57:37;;;;;;;52.33;37.80;;;11.80;99.90;;;;;;5112328;28;20055;-77
2021/11/19 09:00:09;;;;;;;54.37;39.73;;;11.80;99.90;;;;;;5087588;28;21993;-77
2021/11/19 09:02:35;;;;;;;60.67;40.13;;;11.80;99.90;;;;;;5100603;28;20093;-78
2021/11/19 09:05:03;;;;;;;62.43;43.07;;;11.80;99.90;;;;;;5113957;28;20468;-78
2021/11/19 09:07:31;;;;;;;62.90;43.50;;;11.80;99.90;;;;;;5112302;28;20059;-78
2021/11/19 09:09:57;;;;;;;59.63;40.47;;;11.80;99.90;;;;;;5109693;27;20043;-77
2021/11/19 09:12:22;;;;;;;64.97;43.13;;;11.90;99.90;;;;;;5087183;28;20048;-76
2021/11/19 09:14:48;;;;;;;56.83;39.67;;;11.90;99.90;;;;;;5112847;28;20490;-77
2021/11/19 09:17:18;;;;;;;63.23;40.40;;;12.00;99.90;;;;;;5114198;28;20161;-77
2021/11/19 09:20:09;;;;;;;57.33;37.57;;;12.00;99.90;;;;;;5109005;28;20131;-77
2021/11/19 09:22:38;;;;;;;55.73;37.53;;;12.00;99.90;;;;;;5109993;28;20028;-79
2021/11/19 09:25:16;;;;;;;60.43;38.23;;;12.10;99.90;;;;;;5108606;27;20031;-77
2021/11/19 09:27:43;;;;;;;53.67;35.70;;;12.10;99.90;;;;;;5105600;28;20036;-78
2021/11/19 09:30:20;;;;;;;54.63;37.00;;;12.10;99.90;;;;;;5092782;28;20047;-77
2021/11/19 09:32:49;;;;;;;56.67;36.63;;;12.10;99.90;;;;;;5105238;27;20174;-77
2021/11/19 09:35:17;;;;;;;53.80;35.73;;;12.10;99.90;;;;;;5104894;28;20103;-78
2021/11/19 09:37:43;;;;;;;56.03;35.50;;;12.10;99.90;;;;;;5106898;27;20020;-78
2021/11/19 09:40:10;;;;;;;58.03;35.73;;;12.10;99.90;;;;;;5095814;28;20126;-78
2021/11/19 09:43:15;;;;;;;55.60;36.47;;;12.10;99.90;;;;;;5086851;28;20172;-78
2021/11/19 09:45:46;;;;;;;55.80;36.37;;;12.10;99.90;;;;;;5105167;28;20020;-77
2021/11/19 09:48:46;;;;;;;53.30;35.77;;;12.20;99.90;;;;;;5100718;28;20024;-78
2021/11/19 09:51:42;;;;;;;56.20;36.40;;;12.20;99.90;;;;;;5103113;28;20028;-78
2021/11/19 09:54:17;;;;;;;62.40;36.17;;;12.20;99.90;;;;;;5109300;27;20027;-77
2021/11/19 09:57:10;;;;;;;54.63;35.53;;;12.20;99.90;;;;;;5112522;28;20053;-77
2021/11/19 09:59:46;;;;;;;65.00;37.05;;;12.30;99.90;;;;;;5104937;28;20028;-79
2021/11/19 10:02:39;;;;;;;53.97;35.10;;;12.20;99.90;;;;;;5101153;28;20107;-78
2021/11/19 10:05:20;;;;;;;58.53;35.35;;;12.20;99.90;;;;;;5119880;27;20085;-80
2021/11/19 10:08:10;;;;;;;55.20;35.93;;;12.20;99.90;;;;;;5108617;27;20035;-77
2021/11/19 10:10:51;;;;;;;60.77;38.47;;;12.10;99.90;;;;;;5115438;28;20042;-78
2021/11/19 10:13:44;;;;;;;54.40;34.97;;;12.10;99.90;;;;;;5110231;27;20078;-77
2021/11/19 10:16:21;;;;;;;59.67;37.65;;;12.10;99.90;;;;;;5103720;28;20032;-78
2021/11/19 10:19:10;;;;;;;57.27;35.87;;;12.20;99.90;;;;;;5097325;28;20020;-76
2021/11/19 10:21:51;;;;;;;58.23;36.33;;;12.30;99.90;;;;;;5099179;28;20047;-77
2021/11/19 10:24:35;;;;;;;52.20;35.27;;;12.30;99.90;;;;;;5102684;28;20110;-77
2021/11/19 10:27:00;;;;;;;57.57;36.53;;;12.30;99.90;;;;;;5104724;27;20099;-75
2021/11/19 10:29:26;;;;;;;56.57;36.57;;;12.30;99.90;;;;;;5091216;28;20130;-77
2021/11/19 10:31:54;;;;;;;57.90;37.77;;;12.30;99.90;;;;;;5104208;28;20811;-77
2021/11/19 10:34:43;;;;;;;57.85;35.58;;;12.30;99.90;;;;;;5104388;28;20055;-76
2021/11/19 10:37:23;;;;;;;57.80;36.93;;;12.40;99.90;;;;;;5091223;28;20039;-79
2021/11/19 10:40:46;;;;;;;59.00;35.67;;;12.40;99.90;;;;;;5108683;28;20090;-76
2021/11/19 10:43:47;;;;;;;57.23;36.50;;;12.50;99.90;;;;;;5047560;28;20217;-78
2021/11/19 10:46:50;;;;;;;58.90;38.17;;;12.50;99.90;;;;;;5021058;28;20156;-77
2021/11/19 10:49:32;;;;;;;60.22;37.25;;;12.50;99.90;;;;;;5074201;28;20043;-77
2021/11/19 10:52:35;;;;;;;59.03;39.17;;;12.50;99.90;;;;;;5112521;28;20474;-77
2021/11/19 10:55:38;;;;;;;55.67;37.47;;;12.60;99.90;;;;;;5093720;28;20039;-77
2021/11/19 10:58:43;;;;;;;60.15;38.13;;;12.50;99.90;;;;;;5111717;28;20015;-79
2021/11/19 11:01:25;;;;;;;56.50;38.23;;;12.60;99.90;;;;;;5111445;28;20043;-78
2021/11/19 11:04:01;;;;;;;55.37;36.80;;;12.60;99.90;;;;;;5107777;28;20023;-77
2021/11/19 11:06:34;;;;;;;55.23;37.73;;;12.70;99.90;;;;;;5112423;28;20081;-78
2021/11/19 11:09:18;;;;;;;53.72;36.90;;;12.70;99.90;;;;;;5110140;28;20522;-78
2021/11/19 11:11:45;;;;;;;58.85;36.85;;;12.80;99.80;;;;;;5109134;28;20061;-78
2021/11/19 11:14:10;;;;;;;56.50;37.95;;;12.90;99.80;;;;;;5104889;28;20042;-78
2021/11/19 11:16:46;;;;;;;54.50;37.42;;;12.90;99.70;;;;;;5091581;28;20028;-78
2021/11/19 11:19:12;;;;;;;56.45;37.30;;;13.00;99.60;;;;;;5108559;28;20020;-79
2021/11/19 11:21:47;;;;;;;57.17;37.80;;;13.00;99.60;;;;;;5113220;28;20362;-76
2021/11/19 11:24:29;;;;;;;57.95;38.05;;;13.10;99.60;;;;;;5110152;28;20035;-79
2021/11/19 11:27:10;;;;;;;56.55;36.60;;;13.10;99.50;;;;;;5108957;28;20023;-77
2021/11/19 11:29:59;;;;;;;55.25;37.35;;;13.10;99.40;;;;;;5106117;28;20168;-76
2021/11/19 11:32:51;;;;;;;53.92;37.03;;;13.20;99.40;;;;;;5111624;28;20031;-79
2021/11/19 11:35:44;;;;;;;54.42;36.70;;;13.30;99.30;;;;;;5106845;28;20243;-79
2021/11/19 11:38:14;;;;;;;57.60;37.60;;;13.30;99.10;;;;;;5111009;27;20019;-77
2021/11/19 11:40:48;;;;;;;52.88;35.92;;;13.40;99.00;;;;;;5114051;28;20039;-77
2021/11/19 11:43:14;;;;;;;56.15;39.80;;;13.40;99.00;;;;;;5109964;27;20024;-78
2021/11/19 11:45:48;;;;;;;52.75;37.00;;;13.40;98.70;;;;;;5111610;28;20038;-77
2021/11/19 11:48:32;;;;;;;50.00;35.97;;;13.50;98.90;;;;;;5114055;28;20014;-79
2021/11/19 11:51:10;;;;;;;54.28;36.95;;;13.50;98.90;;;;;;5110786;27;20039;-77
2021/11/19 11:54:11;;;;;;;49.75;35.60;;;13.70;98.80;;;;;;5094194;28;20024;-77
2021/11/19 11:56:42;;;;;;;50.75;35.22;;;13.80;98.70;;;;;;5104613;27;20486;-77
2021/11/19 11:59:26;;;;;;;51.35;36.60;;;13.80;98.40;;;;;;5107445;27;20107;-81
2021/11/19 12:01:56;;;;;;;50.67;36.15;;;13.80;98.30;;;;;;5102886;28;20383;-78
2021/11/19 12:04:39;;;;;;;51.50;36.22;;;13.80;98.30;;;;;;5103469;27;20019;-79
2021/11/19 12:07:10;;;;;;;50.58;35.47;;;13.70;98.30;;;;;;5103843;27;20138;-76
2021/11/19 12:09:45;;;;;;;45.45;34.80;;;13.60;98.30;;;;;;5106105;27;20106;-76
2021/11/19 12:12:28;;;;;;;48.47;36.30;;;13.50;98.30;;;;;;5109697;27;20075;-77
2021/11/19 12:15:33;;;;;;;51.20;36.65;;;13.50;98.40;;;;;;5107440;27;20024;-76
2021/11/19 12:18:45;;;;;;;52.22;34.80;;;13.40;98.50;;;;;;5095562;28;20058;-76
2021/11/19 12:21:43;;;;;;;50.75;36.55;;;13.40;98.50;;;;;;5082314;27;20038;-77
2021/11/19 12:24:38;;;;;;;51.22;36.08;;;13.30;98.60;;;;;;5115236;28;20491;-78
2021/11/19 12:27:04;;;;;;;47.38;35.60;;;13.30;98.70;;;;;;5114586;28;20459;-77
2021/11/19 12:29:57;;;;;;;51.83;34.83;;;13.30;98.70;;;;;;5114679;28;20040;-76
2021/11/19 12:32:34;;;;;;;48.65;34.95;;;13.30;98.80;;;;;;5114368;27;20036;-81
2021/11/19 12:35:13;;;;;;;48.03;34.25;;;13.30;98.80;;;;;;5117004;27;20084;-77
2021/11/19 12:38:09;;;;;;;50.08;36.72;;;13.30;98.80;;;;;;5122397;28;20474;-77
2021/11/19 12:40:50;;;;;;;49.92;35.92;;;13.20;98.80;;;;;;5104039;28;20032;-76
2021/11/19 12:43:41;;;;;;;52.03;36.03;;;13.20;98.90;;;;;;5115569;27;20069;-77
2021/11/19 12:46:44;;;;;;;51.35;36.53;;;13.30;98.90;;;;;;5120537;27;20032;-77
2021/11/19 12:49:45;;;;;;;49.40;34.95;;;13.20;98.80;;;;;;5119651;27;20093;-79
2021/11/19 12:52:10;;;;;;;53.00;36.70;;;13.20;98.80;;;;;;5120891;27;20110;-76
2021/11/19 12:54:49;;;;;;;48.35;35.08;;;13.20;98.90;;;;;;5118832;28;20055;-77
2021/11/19 12:57:43;;;;;;;49.95;34.78;;;13.20;98.90;;;;;;5111634;27;20024;-77